sensor_id;sensor_type;location;lat;lon;timestamp;pressure;altitude;pressure_sealevel;temperature;humidity
42511;BME280;28141;51.120;17.114;2023-04-26T00:00:04;101251.49;;;23.97;31.04
42511;BME280;28141;51.120;17.114;2023-04-26T00:03:21;101236.59;;;23.98;31.29
42511;BME280;28141;51.120;17.114;2023-04-26T00:06:36;101247.20;;;24.01;30.83
42511;BME280;28141;51.120;17.114;2023-04-26T00:09:50;101240.42;;;23.97;30.72
42511;BME280;28141;51.120;17.114;2023-04-26T00:13:31;101254.28;;;23.91;31.01
42511;BME280;28141;51.120;17.114;2023-04-26T00:16:45;101246.39;;;23.94;30.87
42511;BME280;28141;51.120;17.114;2023-04-26T00:19:59;101239.16;;;23.93;30.96
42511;BME280;28141;51.120;17.114;2023-04-26T00:23:14;101239.58;;;23.97;31.09
42511;BME280;28141;51.120;17.114;2023-04-26T00:26:57;101256.67;;;23.87;30.95
42511;BME280;28141;51.120;17.114;2023-04-26T00:30:13;101247.30;;;23.88;31.12
42511;BME280;28141;51.120;17.114;2023-04-26T00:33:27;101252.41;;;23.85;31.18
42511;BME280;28141;51.120;17.114;2023-04-26T00:36:41;101261.37;;;23.80;30.99
42511;BME280;28141;51.120;17.114;2023-04-26T00:40:20;101266.69;;;23.82;31.07
42511;BME280;28141;51.120;17.114;2023-04-26T00:43:34;101259.91;;;23.78;31.09
42511;BME280;28141;51.120;17.114;2023-04-26T00:46:49;101252.47;;;23.78;31.21
42511;BME280;28141;51.120;17.114;2023-04-26T00:50:06;101266.90;;;23.80;31.14
42511;BME280;28141;51.120;17.114;2023-04-26T00:53:45;101275.88;;;23.76;30.97
42511;BME280;28141;51.120;17.114;2023-04-26T00:56:59;101271.85;;;23.72;30.83
42511;BME280;28141;51.120;17.114;2023-04-26T01:00:14;101266.78;;;23.69;31.22
42511;BME280;28141;51.120;17.114;2023-04-26T01:03:29;101269.93;;;23.72;30.99
42511;BME280;28141;51.120;17.114;2023-04-26T01:07:07;101274.83;;;23.70;31.06
42511;BME280;28141;51.120;17.114;2023-04-26T01:10:24;101282.10;;;23.64;31.13
42511;BME280;28141;51.120;17.114;2023-04-26T01:13:41;101276.83;;;23.56;31.08
42511;BME280;28141;51.120;17.114;2023-04-26T01:16:56;101280.66;;;23.55;31.04
42511;BME280;28141;51.120;17.114;2023-04-26T01:20:35;101284.65;;;23.66;31.16
42511;BME280;28141;51.120;17.114;2023-04-26T01:23:51;101289.55;;;23.64;31.29
42511;BME280;28141;51.120;17.114;2023-04-26T01:27:06;101288.91;;;23.62;31.23
42511;BME280;28141;51.120;17.114;2023-04-26T01:30:19;101286.56;;;23.59;31.38
42511;BME280;28141;51.120;17.114;2023-04-26T01:33:59;101291.26;;;23.58;31.04
42511;BME280;28141;51.120;17.114;2023-04-26T01:37:13;101291.51;;;23.50;31.01
42511;BME280;28141;51.120;17.114;2023-04-26T01:40:27;101294.91;;;23.46;30.82
42511;BME280;28141;51.120;17.114;2023-04-26T01:43:41;101299.59;;;23.45;31.01
42511;BME280;28141;51.120;17.114;2023-04-26T01:47:19;101305.55;;;23.42;31.21
42511;BME280;28141;51.120;17.114;2023-04-26T01:50:33;101300.20;;;23.47;31.16
42511;BME280;28141;51.120;17.114;2023-04-26T01:53:47;101305.34;;;23.44;31.20
42511;BME280;28141;51.120;17.114;2023-04-26T01:57:01;101302.57;;;23.44;31.10
42511;BME280;28141;51.120;17.114;2023-04-26T02:00:40;101310.25;;;23.35;31.22
42511;BME280;28141;51.120;17.114;2023-04-26T02:03:54;101301.08;;;23.41;30.95
42511;BME280;28141;51.120;17.114;2023-04-26T02:07:08;101307.67;;;23.47;31.30
42511;BME280;28141;51.120;17.114;2023-04-26T02:10:22;101300.23;;;23.41;31.25
42511;BME280;28141;51.120;17.114;2023-04-26T02:14:01;101308.73;;;23.39;31.18
42511;BME280;28141;51.120;17.114;2023-04-26T02:17:14;101301.72;;;23.37;31.18
42511;BME280;28141;51.120;17.114;2023-04-26T02:20:29;101302.57;;;23.37;31.46
42511;BME280;28141;51.120;17.114;2023-04-26T02:23:43;101301.72;;;23.43;31.41
42511;BME280;28141;51.120;17.114;2023-04-26T02:27:22;101307.88;;;23.39;31.17
42511;BME280;28141;51.120;17.114;2023-04-26T02:30:36;101306.43;;;23.36;31.38
42511;BME280;28141;51.120;17.114;2023-04-26T02:33:49;101300.26;;;23.34;30.99
42511;BME280;28141;51.120;17.114;2023-04-26T02:37:03;101308.13;;;23.30;31.11
42511;BME280;28141;51.120;17.114;2023-04-26T02:40:42;101315.15;;;23.26;31.23
42511;BME280;28141;51.120;17.114;2023-04-26T02:43:56;101310.47;;;23.27;31.32
42511;BME280;28141;51.120;17.114;2023-04-26T02:47:10;101303.70;;;23.23;31.35
42511;BME280;28141;51.120;17.114;2023-04-26T02:50:24;101308.13;;;23.30;31.28
42511;BME280;28141;51.120;17.114;2023-04-26T02:54:03;101306.18;;;23.38;31.23
42511;BME280;28141;51.120;17.114;2023-04-26T02:57:17;101303.23;;;23.33;31.31
42511;BME280;28141;51.120;17.114;2023-04-26T03:00:31;101311.31;;;23.34;31.01
42511;BME280;28141;51.120;17.114;2023-04-26T03:03:46;101311.74;;;23.31;31.10
42511;BME280;28141;51.120;17.114;2023-04-26T03:07:25;101323.90;;;23.23;31.23
42511;BME280;28141;51.120;17.114;2023-04-26T03:10:38;101313.45;;;23.32;31.18
42511;BME280;28141;51.120;17.114;2023-04-26T03:13:52;101315.15;;;23.26;31.07
42511;BME280;28141;51.120;17.114;2023-04-26T03:17:06;101324.31;;;23.20;31.29
42511;BME280;28141;51.120;17.114;2023-04-26T03:20:45;101329.63;;;23.22;31.31
42511;BME280;28141;51.120;17.114;2023-04-26T03:23:59;101314.33;;;23.19;31.21
42511;BME280;28141;51.120;17.114;2023-04-26T03:27:13;101323.89;;;23.17;31.34
42511;BME280;28141;51.120;17.114;2023-04-26T03:30:28;101338.37;;;23.12;31.49
42511;BME280;28141;51.120;17.114;2023-04-26T03:34:07;101341.34;;;23.11;31.31
42511;BME280;28141;51.120;17.114;2023-04-26T03:37:22;101337.51;;;23.05;31.29
42511;BME280;28141;51.120;17.114;2023-04-26T03:40:36;101345.38;;;23.08;31.46
42511;BME280;28141;51.120;17.114;2023-04-26T03:43:50;101339.41;;;23.05;31.28
42511;BME280;28141;51.120;17.114;2023-04-26T03:47:29;101354.93;;;23.06;31.40
42511;BME280;28141;51.120;17.114;2023-04-26T03:50:44;101353.87;;;23.07;31.48
42511;BME280;28141;51.120;17.114;2023-04-26T03:53:58;101359.80;;;23.17;31.75
42511;BME280;28141;51.120;17.114;2023-04-26T03:57:13;101364.08;;;23.19;31.56
42511;BME280;28141;51.120;17.114;2023-04-26T04:00:51;101355.78;;;23.19;31.31
42511;BME280;28141;51.120;17.114;2023-04-26T04:04:05;101359.37;;;23.26;31.32
42511;BME280;28141;51.120;17.114;2023-04-26T04:07:19;101360.65;;;23.30;31.01
42511;BME280;28141;51.120;17.114;2023-04-26T04:10:35;101374.03;;;23.40;30.68
42511;BME280;28141;51.120;17.114;2023-04-26T04:14:14;101372.35;;;23.33;30.77
42511;BME280;28141;51.120;17.114;2023-04-26T04:17:28;101372.14;;;23.34;30.69
42511;BME280;28141;51.120;17.114;2023-04-26T04:20:42;101378.50;;;23.41;30.78
42511;BME280;28141;51.120;17.114;2023-04-26T04:23:56;101388.06;;;23.39;30.91
42511;BME280;28141;51.120;17.114;2023-04-26T04:27:35;101386.79;;;23.41;30.45
42511;BME280;28141;51.120;17.114;2023-04-26T04:30:50;101392.54;;;23.46;30.22
42511;BME280;28141;51.120;17.114;2023-04-26T04:34:04;101392.97;;;23.50;30.36
42511;BME280;28141;51.120;17.114;2023-04-26T04:37:18;101398.05;;;23.40;29.99
42511;BME280;28141;51.120;17.114;2023-04-26T04:40:58;101396.37;;;23.52;30.13
42511;BME280;28141;51.120;17.114;2023-04-26T04:44:14;101400.38;;;23.62;29.94
42511;BME280;28141;51.120;17.114;2023-04-26T04:47:31;101402.06;;;23.70;29.83
42511;BME280;28141;51.120;17.114;2023-04-26T04:51:16;101413.13;;;23.77;29.71
42511;BME280;28141;51.120;17.114;2023-04-26T04:54:30;101414.62;;;23.79;29.78
42511;BME280;28141;51.120;17.114;2023-04-26T04:57:44;101413.13;;;23.77;29.63
42511;BME280;28141;51.120;17.114;2023-04-26T05:00:58;101413.31;;;23.88;29.42
42511;BME280;28141;51.120;17.114;2023-04-26T05:04:38;101417.98;;;23.88;29.45
42511;BME280;28141;51.120;17.114;2023-04-26T05:07:52;101420.09;;;23.92;29.21
42511;BME280;28141;51.120;17.114;2023-04-26T05:11:06;101422.64;;;23.94;28.99
42511;BME280;28141;51.120;17.114;2023-04-26T05:14:20;101421.79;;;23.93;29.41
42511;BME280;28141;51.120;17.114;2023-04-26T05:17:58;101425.23;;;23.82;29.28
42511;BME280;28141;51.120;17.114;2023-04-26T05:21:13;101421.22;;;23.78;29.56
42511;BME280;28141;51.120;17.114;2023-04-26T05:24:28;101429.91;;;23.88;29.21
42511;BME280;28141;51.120;17.114;2023-04-26T05:27:43;101433.07;;;23.92;29.26
42511;BME280;28141;51.120;17.114;2023-04-26T05:31:23;101435.23;;;23.83;29.20
42511;BME280;28141;51.120;17.114;2023-04-26T05:34:37;101445.66;;;23.81;29.27
42511;BME280;28141;51.120;17.114;2023-04-26T05:37:51;101446.53;;;23.75;28.98
42511;BME280;28141;51.120;17.114;2023-04-26T05:41:05;101455.50;;;23.64;28.84
42511;BME280;28141;51.120;17.114;2023-04-26T05:44:43;101450.18;;;23.62;29.11
42511;BME280;28141;51.120;17.114;2023-04-26T05:47:57;101449.74;;;23.59;29.12
42511;BME280;28141;51.120;17.114;2023-04-26T05:51:11;101445.92;;;23.67;29.20
42511;BME280;28141;51.120;17.114;2023-04-26T05:54:25;101448.26;;;23.63;29.15
42511;BME280;28141;51.120;17.114;2023-04-26T05:58:04;101463.16;;;23.62;29.22
42511;BME280;28141;51.120;17.114;2023-04-26T06:01:18;101456.99;;;23.67;29.14
42511;BME280;28141;51.120;17.114;2023-04-26T06:04:33;101466.98;;;23.74;28.99
42511;BME280;28141;51.120;17.114;2023-04-26T06:07:46;101458.24;;;23.77;29.04
42511;BME280;28141;51.120;17.114;2023-04-26T06:11:25;101469.96;;;23.66;29.10
42511;BME280;28141;51.120;17.114;2023-04-26T06:14:39;101459.95;;;23.58;29.67
42511;BME280;28141;51.120;17.114;2023-04-26T06:17:53;101461.00;;;23.71;29.30
42511;BME280;28141;51.120;17.114;2023-04-26T06:21:07;101469.10;;;23.72;29.21
42511;BME280;28141;51.120;17.114;2023-04-26T06:24:45;101472.88;;;23.97;29.34
42511;BME280;28141;51.120;17.114;2023-04-26T06:27:59;101470.71;;;24.06;29.29
42511;BME280;28141;51.120;17.114;2023-04-26T06:31:13;101470.36;;;24.47;29.05
42511;BME280;28141;51.120;17.114;2023-04-26T06:34:27;101467.31;;;24.62;28.89
42511;BME280;28141;51.120;17.114;2023-04-26T06:38:05;101479.18;;;24.76;28.51
42511;BME280;28141;51.120;17.114;2023-04-26T06:41:20;101472.05;;;24.93;28.28
42511;BME280;28141;51.120;17.114;2023-04-26T06:44:34;101471.13;;;24.99;28.11
42511;BME280;28141;51.120;17.114;2023-04-26T06:47:51;101472.41;;;25.03;27.85
42511;BME280;28141;51.120;17.114;2023-04-26T06:51:34;101463.93;;;24.98;27.88
42511;BME280;28141;51.120;17.114;2023-04-26T06:54:49;101472.75;;;25.13;27.97
42511;BME280;28141;51.120;17.114;2023-04-26T06:58:02;101466.08;;;25.21;27.88
42511;BME280;28141;51.120;17.114;2023-04-26T07:01:16;101471.13;;;25.30;27.82
42511;BME280;28141;51.120;17.114;2023-04-26T07:04:56;101476.21;;;25.33;27.70
42511;BME280;28141;51.120;17.114;2023-04-26T07:08:10;101469.49;;;25.48;27.58
42511;BME280;28141;51.120;17.114;2023-04-26T07:11:25;101466.42;;;25.56;27.49
42511;BME280;28141;51.120;17.114;2023-04-26T07:14:39;101479.22;;;25.57;27.26
42511;BME280;28141;51.120;17.114;2023-04-26T07:18:20;101463.55;;;25.69;27.29
42511;BME280;28141;51.120;17.114;2023-04-26T07:21:34;101475.15;;;25.84;26.80
42511;BME280;28141;51.120;17.114;2023-04-26T07:24:49;101474.21;;;25.90;27.14
42511;BME280;28141;51.120;17.114;2023-04-26T07:28:03;101475.74;;;25.86;26.72
42511;BME280;28141;51.120;17.114;2023-04-26T07:31:43;101483.30;;;25.97;26.57
42511;BME280;28141;51.120;17.114;2023-04-26T07:34:57;101480.62;;;25.91;26.39
42511;BME280;28141;51.120;17.114;2023-04-26T07:38:11;101478.38;;;25.99;26.44
42511;BME280;28141;51.120;17.114;2023-04-26T07:41:31;101484.34;;;26.03;26.23
42511;BME280;28141;51.120;17.114;2023-04-26T07:45:12;101487.19;;;26.14;26.05
42511;BME280;28141;51.120;17.114;2023-04-26T07:48:25;101484.54;;;26.19;25.50
42511;BME280;28141;51.120;17.114;2023-04-26T07:51:42;101476.38;;;26.25;25.63
42511;BME280;28141;51.120;17.114;2023-04-26T07:54:57;101483.24;;;26.22;25.53
42511;BME280;28141;51.120;17.114;2023-04-26T07:58:38;101485.56;;;26.25;25.54
42511;BME280;28141;51.120;17.114;2023-04-26T08:01:52;101496.39;;;26.33;25.17
42511;BME280;28141;51.120;17.114;2023-04-26T08:05:07;101486.29;;;26.39;25.25
42511;BME280;28141;51.120;17.114;2023-04-26T08:08:27;101491.98;;;26.44;24.88
42511;BME280;28141;51.120;17.114;2023-04-26T08:12:07;101502.02;;;26.45;25.21
42511;BME280;28141;51.120;17.114;2023-04-26T08:15:22;101493.35;;;26.53;24.95
42511;BME280;28141;51.120;17.114;2023-04-26T08:18:36;101495.80;;;26.61;24.98
42511;BME280;28141;51.120;17.114;2023-04-26T08:21:49;101491.36;;;26.60;24.79
42511;BME280;28141;51.120;17.114;2023-04-26T08:25:30;101498.05;;;26.71;24.68
42511;BME280;28141;51.120;17.114;2023-04-26T08:28:47;101501.19;;;26.74;24.62
42511;BME280;28141;51.120;17.114;2023-04-26T08:32:00;101503.97;;;26.74;24.76
42511;BME280;28141;51.120;17.114;2023-04-26T08:35:14;101500.77;;;26.89;24.32
42511;BME280;28141;51.120;17.114;2023-04-26T08:38:54;101511.15;;;26.82;24.11
42511;BME280;28141;51.120;17.114;2023-04-26T08:42:15;101503.71;;;26.94;24.16
42511;BME280;28141;51.120;17.114;2023-04-26T08:45:30;101502.40;;;26.97;24.46
42511;BME280;28141;51.120;17.114;2023-04-26T08:48:57;101504.09;;;26.98;24.79
42511;BME280;28141;51.120;17.114;2023-04-26T08:52:36;101515.75;;;26.88;24.90
42511;BME280;28141;51.120;17.114;2023-04-26T08:55:52;101504.25;;;26.84;24.84
42511;BME280;28141;51.120;17.114;2023-04-26T08:59:06;101504.83;;;27.05;24.82
42511;BME280;28141;51.120;17.114;2023-04-26T09:02:22;101507.02;;;27.03;24.52
42511;BME280;28141;51.120;17.114;2023-04-26T09:05:38;101502.32;;;27.15;24.30
42511;BME280;28141;51.120;17.114;2023-04-26T09:09:23;101515.02;;;27.11;24.08
42511;BME280;28141;51.120;17.114;2023-04-26T09:12:39;101512.02;;;27.12;24.10
42511;BME280;28141;51.120;17.114;2023-04-26T09:15:53;101508.50;;;27.17;24.01
42511;BME280;28141;51.120;17.114;2023-04-26T09:19:08;101514.67;;;27.19;23.77
42511;BME280;28141;51.120;17.114;2023-04-26T09:22:53;101506.09;;;27.20;23.97
42511;BME280;28141;51.120;17.114;2023-04-26T09:26:17;101510.35;;;27.23;24.16
42511;BME280;28141;51.120;17.114;2023-04-26T09:29:33;101518.54;;;27.18;23.96
42511;BME280;28141;51.120;17.114;2023-04-26T09:33:13;101515.02;;;27.11;24.32
42511;BME280;28141;51.120;17.114;2023-04-26T09:36:28;101509.84;;;27.26;24.50
42511;BME280;28141;51.120;17.114;2023-04-26T09:39:42;101502.94;;;27.17;23.90
42511;BME280;28141;51.120;17.114;2023-04-26T09:43:04;101502.94;;;27.17;24.35
42511;BME280;28141;51.120;17.114;2023-04-26T09:50:09;101511.54;;;27.27;23.94
42511;BME280;28141;51.120;17.114;2023-04-26T09:53:32;101505.48;;;27.18;23.74
42511;BME280;28141;51.120;17.114;2023-04-26T09:57:20;101514.00;;;27.35;23.55
42511;BME280;28141;51.120;17.114;2023-04-26T10:00:37;101492.83;;;27.34;23.46
42511;BME280;28141;51.120;17.114;2023-04-26T10:03:52;101499.35;;;27.40;23.06
42511;BME280;28141;51.120;17.114;2023-04-26T10:07:08;101492.70;;;27.41;22.69
42511;BME280;28141;51.120;17.114;2023-04-26T10:10:49;101503.36;;;27.44;23.27
42511;BME280;28141;51.120;17.114;2023-04-26T10:14:04;101509.27;;;27.47;23.36
42511;BME280;28141;51.120;17.114;2023-04-26T10:17:19;101513.70;;;27.55;23.34
42511;BME280;28141;51.120;17.114;2023-04-26T10:21:29;101515.64;;;27.66;23.44
42511;BME280;28141;51.120;17.114;2023-04-26T10:24:48;101516.24;;;27.56;23.54
42511;BME280;28141;51.120;17.114;2023-04-26T10:28:04;101522.30;;;27.65;23.71
42511;BME280;28141;51.120;17.114;2023-04-26T10:31:18;101511.89;;;27.84;23.69
42511;BME280;28141;51.120;17.114;2023-04-26T10:35:11;101515.75;;;27.94;23.89
42511;BME280;28141;51.120;17.114;2023-04-26T10:38:26;101508.50;;;27.93;23.18
42511;BME280;28141;51.120;17.114;2023-04-26T10:41:40;101517.09;;;27.92;23.40
42511;BME280;28141;51.120;17.114;2023-04-26T10:45:26;101520.00;;;27.97;23.67
42511;BME280;28141;51.120;17.114;2023-04-26T10:48:40;101516.23;;;27.91;24.03
42511;BME280;28141;51.120;17.114;2023-04-26T10:55:49;101522.92;;;27.79;23.45
42511;BME280;28141;51.120;17.114;2023-04-26T10:59:13;101517.83;;;27.76;23.65
42511;BME280;28141;51.120;17.114;2023-04-26T11:06:25;101526.88;;;27.59;23.08
42511;BME280;28141;51.120;17.114;2023-04-26T11:09:48;101523.26;;;27.71;22.94
42511;BME280;28141;51.120;17.114;2023-04-26T11:13:02;101516.74;;;27.77;22.92
42511;BME280;28141;51.120;17.114;2023-04-26T11:16:44;101518.18;;;27.91;22.97
42511;BME280;28141;51.120;17.114;2023-04-26T11:20:07;101515.75;;;27.94;22.87
42511;BME280;28141;51.120;17.114;2023-04-26T11:23:22;101517.45;;;27.95;22.93
42511;BME280;28141;51.120;17.114;2023-04-26T11:26:36;101519.87;;;28.04;22.69
42511;BME280;28141;51.120;17.114;2023-04-26T11:30:20;101522.64;;;28.15;22.51
42511;BME280;28141;51.120;17.114;2023-04-26T11:33:34;101526.20;;;28.22;22.58
42511;BME280;28141;51.120;17.114;2023-04-26T11:36:48;101534.87;;;28.14;22.13
42511;BME280;28141;51.120;17.114;2023-04-26T11:40:02;101528.38;;;28.20;21.62
42511;BME280;28141;51.120;17.114;2023-04-26T11:43:42;101532.48;;;28.18;22.13
42511;BME280;28141;51.120;17.114;2023-04-26T11:46:56;101516.62;;;28.18;21.87
42511;BME280;28141;51.120;17.114;2023-04-26T11:50:11;101523.28;;;28.17;22.66
42511;BME280;28141;51.120;17.114;2023-04-26T11:53:35;101525.19;;;28.17;22.52
42511;BME280;28141;51.120;17.114;2023-04-26T11:57:17;101517.45;;;28.30;22.31
42511;BME280;28141;51.120;17.114;2023-04-26T12:00:31;101515.15;;;28.27;21.98
42511;BME280;28141;51.120;17.114;2023-04-26T12:03:49;101503.73;;;28.41;22.41
42511;BME280;28141;51.120;17.114;2023-04-26T12:07:04;101513.52;;;28.55;22.02
42511;BME280;28141;51.120;17.114;2023-04-26T12:10:45;101518.34;;;28.59;21.95
42511;BME280;28141;51.120;17.114;2023-04-26T12:14:00;101518.20;;;28.66;21.94
42511;BME280;28141;51.120;17.114;2023-04-26T12:17:14;101520.00;;;28.72;22.09
42511;BME280;28141;51.120;17.114;2023-04-26T12:20:31;101511.02;;;28.82;21.84
42511;BME280;28141;51.120;17.114;2023-04-26T12:24:21;101523.90;;;28.99;21.81
42511;BME280;28141;51.120;17.114;2023-04-26T12:27:35;101512.74;;;28.99;21.60
42511;BME280;28141;51.120;17.114;2023-04-26T12:30:51;101517.83;;;29.02;21.86
42511;BME280;28141;51.120;17.114;2023-04-26T12:34:05;101527.16;;;29.08;21.27
42511;BME280;28141;51.120;17.114;2023-04-26T12:37:46;101538.39;;;29.13;21.50
42511;BME280;28141;51.120;17.114;2023-04-26T12:41:01;101529.88;;;29.20;21.63
42511;BME280;28141;51.120;17.114;2023-04-26T12:44:15;101536.02;;;29.05;21.30
42511;BME280;28141;51.120;17.114;2023-04-26T12:47:30;101531.29;;;29.05;21.41
42511;BME280;28141;51.120;17.114;2023-04-26T12:51:12;101519.69;;;28.97;21.50
42511;BME280;28141;51.120;17.114;2023-04-26T12:54:26;101549.27;;;28.98;22.03
42511;BME280;28141;51.120;17.114;2023-04-26T12:57:42;101534.37;;;28.92;21.91
42511;BME280;28141;51.120;17.114;2023-04-26T13:00:56;101551.80;;;28.99;21.71
42511;BME280;28141;51.120;17.114;2023-04-26T13:04:36;101546.29;;;28.88;21.83
42511;BME280;28141;51.120;17.114;2023-04-26T13:07:51;101545.64;;;28.97;21.81
42511;BME280;28141;51.120;17.114;2023-04-26T13:11:05;101542.46;;;29.22;22.22
42511;BME280;28141;51.120;17.114;2023-04-26T13:14:19;101537.63;;;29.46;22.04
42511;BME280;28141;51.120;17.114;2023-04-26T13:17:36;101524.77;;;29.78;21.94
42511;BME280;28141;51.120;17.114;2023-04-26T13:21:17;101530.14;;;30.19;21.15
42511;BME280;28141;51.120;17.114;2023-04-26T13:24:31;101521.16;;;30.55;20.72
42511;BME280;28141;51.120;17.114;2023-04-26T13:27:45;101526.27;;;30.85;21.02
42511;BME280;28141;51.120;17.114;2023-04-26T13:30:59;101522.16;;;31.14;19.59
42511;BME280;28141;51.120;17.114;2023-04-26T13:34:40;101523.02;;;31.47;20.09
42511;BME280;28141;51.120;17.114;2023-04-26T13:37:54;101535.35;;;31.78;19.66
42511;BME280;28141;51.120;17.114;2023-04-26T13:41:09;101534.71;;;32.08;19.29
42511;BME280;28141;51.120;17.114;2023-04-26T13:44:24;101531.47;;;32.26;18.87
42511;BME280;28141;51.120;17.114;2023-04-26T13:48:05;101546.75;;;32.50;19.52
42511;BME280;28141;51.120;17.114;2023-04-26T13:51:19;101537.84;;;32.63;19.18
42511;BME280;28141;51.120;17.114;2023-04-26T13:54:33;101550.81;;;32.75;18.94
42511;BME280;28141;51.120;17.114;2023-04-26T13:57:49;101557.01;;;32.82;19.03
42511;BME280;28141;51.120;17.114;2023-04-26T14:01:29;101555.31;;;32.81;19.14
42511;BME280;28141;51.120;17.114;2023-04-26T14:04:43;101558.66;;;32.78;19.41
42511;BME280;28141;51.120;17.114;2023-04-26T14:07:57;101566.16;;;32.67;19.32
42511;BME280;28141;51.120;17.114;2023-04-26T14:11:11;101572.03;;;32.55;19.77
42511;BME280;28141;51.120;17.114;2023-04-26T14:14:55;101571.95;;;32.45;20.02
42511;BME280;28141;51.120;17.114;2023-04-26T14:18:08;101568.83;;;32.37;19.95
42511;BME280;28141;51.120;17.114;2023-04-26T14:21:23;101563.99;;;32.22;20.12
42511;BME280;28141;51.120;17.114;2023-04-26T14:24:38;101566.70;;;32.12;20.10
42511;BME280;28141;51.120;17.114;2023-04-26T14:28:19;101566.05;;;32.00;19.66
42511;BME280;28141;51.120;17.114;2023-04-26T14:31:34;101571.87;;;31.93;19.55
42511;BME280;28141;51.120;17.114;2023-04-26T14:34:47;101571.09;;;32.03;19.75
42511;BME280;28141;51.120;17.114;2023-04-26T14:38:02;101568.87;;;32.05;19.40
42511;BME280;28141;51.120;17.114;2023-04-26T14:41:42;101576.16;;;32.01;19.35
42511;BME280;28141;51.120;17.114;2023-04-26T14:44:59;101566.05;;;32.00;19.53
42511;BME280;28141;51.120;17.114;2023-04-26T14:48:13;101576.63;;;31.92;18.58
42511;BME280;28141;51.120;17.114;2023-04-26T14:51:27;101578.03;;;31.90;19.10
42511;BME280;28141;51.120;17.114;2023-04-26T14:55:08;101581.02;;;31.78;19.26
42511;BME280;28141;51.120;17.114;2023-04-26T14:58:23;101580.79;;;31.85;19.33
42511;BME280;28141;51.120;17.114;2023-04-26T15:01:37;101591.55;;;31.98;19.54
42511;BME280;28141;51.120;17.114;2023-04-26T15:04:51;101587.96;;;32.08;18.74
42511;BME280;28141;51.120;17.114;2023-04-26T15:08:31;101592.58;;;32.24;19.05
42511;BME280;28141;51.120;17.114;2023-04-26T15:11:45;101586.23;;;32.39;18.78
42511;BME280;28141;51.120;17.114;2023-04-26T15:14:59;101586.55;;;32.47;18.76
42511;BME280;28141;51.120;17.114;2023-04-26T15:18:13;101596.08;;;32.46;18.63
42511;BME280;28141;51.120;17.114;2023-04-26T15:21:55;101599.45;;;32.43;18.83
42511;BME280;28141;51.120;17.114;2023-04-26T15:25:10;101607.24;;;32.36;18.80
42511;BME280;28141;51.120;17.114;2023-04-26T15:28:24;101602.75;;;32.35;19.17
42511;BME280;28141;51.120;17.114;2023-04-26T15:31:38;101609.45;;;32.29;18.98
42511;BME280;28141;51.120;17.114;2023-04-26T15:35:18;101608.34;;;32.30;19.01
42511;BME280;28141;51.120;17.114;2023-04-26T15:38:33;101608.19;;;32.52;19.48
42511;BME280;28141;51.120;17.114;2023-04-26T15:41:48;101610.06;;;32.88;19.01
42511;BME280;28141;51.120;17.114;2023-04-26T15:45:02;101607.70;;;33.27;18.77
42511;BME280;28141;51.120;17.114;2023-04-26T15:48:43;101609.77;;;33.78;18.37
42511;BME280;28141;51.120;17.114;2023-04-26T15:51:57;101601.04;;;34.10;18.31
42511;BME280;28141;51.120;17.114;2023-04-26T15:55:11;101596.50;;;34.49;18.19
42511;BME280;28141;51.120;17.114;2023-04-26T15:58:25;101587.88;;;34.95;17.53
42511;BME280;28141;51.120;17.114;2023-04-26T16:02:06;101600.63;;;34.82;17.85
42511;BME280;28141;51.120;17.114;2023-04-26T16:05:20;101602.10;;;34.54;17.82
42511;BME280;28141;51.120;17.114;2023-04-26T16:08:34;101603.81;;;34.40;17.99
42511;BME280;28141;51.120;17.114;2023-04-26T16:11:48;101608.62;;;34.29;17.92
42511;BME280;28141;51.120;17.114;2023-04-26T16:15:28;101603.84;;;34.10;18.20
42511;BME280;28141;51.120;17.114;2023-04-26T16:18:42;101601.05;;;33.99;18.04
42511;BME280;28141;51.120;17.114;2023-04-26T16:21:56;101602.18;;;34.03;18.17
42511;BME280;28141;51.120;17.114;2023-04-26T16:25:10;101611.16;;;34.36;17.85
42511;BME280;28141;51.120;17.114;2023-04-26T16:28:51;101600.32;;;34.73;17.86
42511;BME280;28141;51.120;17.114;2023-04-26T16:32:04;101599.20;;;34.74;17.82
42511;BME280;28141;51.120;17.114;2023-04-26T16:35:19;101598.55;;;35.03;17.42
42511;BME280;28141;51.120;17.114;2023-04-26T16:38:33;101608.02;;;35.22;17.47
42511;BME280;28141;51.120;17.114;2023-04-26T16:42:13;101608.83;;;35.33;17.55
42511;BME280;28141;51.120;17.114;2023-04-26T16:45:27;101609.89;;;35.42;17.14
42511;BME280;28141;51.120;17.114;2023-04-26T16:48:41;101609.13;;;35.26;17.47
42511;BME280;28141;51.120;17.114;2023-04-26T16:51:56;101613.77;;;35.02;17.66
42511;BME280;28141;51.120;17.114;2023-04-26T16:55:11;101622.31;;;34.71;18.46
42511;BME280;28141;51.120;17.114;2023-04-26T16:58:51;101622.94;;;34.43;18.03
42511;BME280;28141;51.120;17.114;2023-04-26T17:02:05;101627.75;;;34.17;17.91
42511;BME280;28141;51.120;17.114;2023-04-26T17:05:19;101631.97;;;33.89;18.09
42511;BME280;28141;51.120;17.114;2023-04-26T17:08:33;101633.34;;;33.61;17.98
42511;BME280;28141;51.120;17.114;2023-04-26T17:12:16;101643.09;;;33.28;18.17
42511;BME280;28141;51.120;17.114;2023-04-26T17:15:31;101646.36;;;33.05;18.24
42511;BME280;28141;51.120;17.114;2023-04-26T17:18:48;101650.07;;;32.69;18.19
42511;BME280;28141;51.120;17.114;2023-04-26T17:22:02;101665.85;;;32.33;18.08
42511;BME280;28141;51.120;17.114;2023-04-26T17:25:42;101677.84;;;31.96;18.95
42511;BME280;28141;51.120;17.114;2023-04-26T17:28:56;101671.91;;;31.92;19.09